Time;durP1;ratioP1;P1;durP2;ratioP2;P2;SDS_P1;SDS_P2;PMS_P1;PMS_P2;Temp;Humidity;BMP_temperature;BMP_pressure;BME280_temperature;BME280_humidity;BME280_pressure;Samples;Min_cycle;Max_cycle;Signal;HPM_P1;HPM_P2
2022/08/20 00:01:04;;;;;;;1115.47;765.77;;;15.10;99.90;;;;;;4197531;28;20214;-73
2022/08/20 00:03:16;;;;;;;1260.37;714.27;;;15.00;99.90;;;;;;4196434;28;20284;-73
2022/08/20 00:05:26;;;;;;;965.47;516.83;;;14.90;99.90;;;;;;4197452;28;20553;-73
2022/08/20 00:07:28;;;;;;;1999.90;808.93;;;14.90;99.90;;;;;;4197103;28;20202;-73
2022/08/20 00:09:28;;;;;;;1999.90;953.70;;;14.80;99.90;;;;;;4197087;28;20239;-73
2022/08/20 00:11:32;;;;;;;1588.70;751.43;;;14.80;99.90;;;;;;4197208;28;20191;-74
2022/08/20 00:13:38;;;;;;;1999.90;817.63;;;14.70;99.90;;;;;;4196579;28;20207;-74
2022/08/20 00:15:39;;;;;;;1557.47;591.73;;;14.70;99.90;;;;;;4197054;28;20543;-73
2022/08/20 00:17:40;;;;;;;712.03;635.53;;;14.50;99.90;;;;;;4197160;28;20206;-72
2022/08/20 00:19:41;;;;;;;1999.90;732.43;;;14.50;99.90;;;;;;4196912;28;20179;-73
2022/08/20 00:21:41;;;;;;;1368.00;502.13;;;14.40;99.90;;;;;;4179086;28;20239;-73
2022/08/20 00:23:44;;;;;;;1999.90;802.67;;;14.50;99.90;;;;;;4196049;28;20252;-73
2022/08/20 00:25:46;;;;;;;1794.40;662.47;;;14.50;99.90;;;;;;4179184;28;20185;-73
2022/08/20 00:27:47;;;;;;;1424.90;566.97;;;14.40;99.90;;;;;;4179086;28;20640;-72
2022/08/20 00:29:47;;;;;;;1405.57;695.93;;;14.40;99.90;;;;;;4196770;28;20178;-73
2022/08/20 00:31:49;;;;;;;925.07;504.97;;;14.30;99.90;;;;;;4197061;28;20200;-73
2022/08/20 00:33:50;;;;;;;917.77;614.73;;;14.20;99.90;;;;;;4196423;28;20870;-73
2022/08/20 00:35:55;;;;;;;493.00;448.13;;;14.10;99.90;;;;;;4195843;28;20188;-73
2022/08/20 00:37:55;;;;;;;716.90;512.03;;;14.10;99.90;;;;;;4197144;28;20602;-73
2022/08/20 00:39:57;;;;;;;602.60;340.73;;;14.10;99.90;;;;;;4196429;28;20186;-72
2022/08/20 00:41:58;;;;;;;445.20;391.00;;;14.10;99.90;;;;;;4196674;28;20260;-73
2022/08/20 00:44:18;;;;;;;790.10;456.47;;;14.10;99.90;;;;;;4178157;28;20591;-73
2022/08/20 00:46:26;;;;;;;493.30;436.30;;;14.10;99.90;;;;;;4196685;28;20698;-73
2022/08/20 00:48:30;;;;;;;598.83;434.73;;;14.10;99.90;;;;;;4196756;28;20195;-73
2022/08/20 00:50:34;;;;;;;529.50;454.93;;;14.00;99.90;;;;;;4196890;28;20188;-74
2022/08/20 00:52:36;;;;;;;857.53;614.20;;;14.00;99.90;;;;;;4178552;28;20199;-73
2022/08/20 00:54:50;;;;;;;714.37;536.13;;;14.00;99.90;;;;;;4195986;28;20694;-73
2022/08/20 00:56:58;;;;;;;1381.87;654.60;;;14.00;99.90;;;;;;4196352;28;20187;-73
2022/08/20 00:58:59;;;;;;;1364.67;666.40;;;14.00;99.90;;;;;;4178736;28;20274;-72
2022/08/20 01:01:00;;;;;;;323.77;298.90;;;14.00;99.90;;;;;;4178630;28;20195;-75
2022/08/20 01:03:01;;;;;;;1037.33;519.73;;;14.00;99.90;;;;;;4195772;28;20562;-73
2022/08/20 01:05:01;;;;;;;691.30;638.27;;;14.10;99.90;;;;;;4196059;28;20183;-73
2022/08/20 01:07:04;;;;;;;1462.83;688.23;;;14.20;99.90;;;;;;4196433;28;20295;-73
2022/08/20 01:09:05;;;;;;;599.17;533.33;;;14.20;99.90;;;;;;4196470;28;20172;-73
2022/08/20 01:11:16;;;;;;;1999.90;860.17;;;14.30;99.90;;;;;;4196369;28;20631;-73
2022/08/20 01:13:22;;;;;;;670.20;609.60;;;14.40;99.90;;;;;;4196129;28;20206;-73
2022/08/20 01:15:27;;;;;;;568.13;508.97;;;14.40;99.90;;;;;;4179507;28;20172;-73
2022/08/20 01:17:33;;;;;;;627.10;566.20;;;14.50;99.90;;;;;;4196634;28;20241;-73
2022/08/20 01:19:41;;;;;;;1999.90;882.03;;;14.60;99.90;;;;;;4178475;28;20181;-73
2022/08/20 01:21:42;;;;;;;909.67;575.03;;;14.70;99.90;;;;;;4196600;28;20540;-75
2022/08/20 01:24:05;;;;;;;596.13;551.73;;;14.70;99.90;;;;;;4196254;28;20637;-73
2022/08/20 01:26:13;;;;;;;1908.93;689.83;;;14.70;99.90;;;;;;4196217;28;20263;-72
2022/08/20 01:28:18;;;;;;;1277.97;572.73;;;14.60;99.90;;;;;;4178270;28;20241;-73
2022/08/20 01:30:18;;;;;;;1109.07;653.50;;;14.60;99.90;;;;;;4196290;28;20164;-75
2022/08/20 01:32:19;;;;;;;1066.17;730.43;;;14.60;99.90;;;;;;4178290;28;20223;-73
2022/08/20 01:34:20;;;;;;;790.70;686.83;;;14.60;99.90;;;;;;4195537;28;20599;-73
2022/08/20 01:36:31;;;;;;;1391.00;606.03;;;14.60;99.90;;;;;;4196039;28;20284;-73
2022/08/20 01:38:33;;;;;;;1999.90;818.23;;;14.70;99.90;;;;;;4196118;28;20172;-73
2022/08/20 01:40:46;;;;;;;1020.13;679.27;;;14.80;99.90;;;;;;4195977;28;20187;-72
2022/08/20 01:42:49;;;;;;;880.57;444.27;;;14.80;99.90;;;;;;4195648;28;20202;-73
2022/08/20 01:44:51;;;;;;;744.83;621.87;;;14.70;99.90;;;;;;4195766;28;20579;-73
2022/08/20 01:46:56;;;;;;;1287.27;731.57;;;14.70;99.90;;;;;;4178145;28;20208;-73
2022/08/20 01:48:58;;;;;;;1464.03;645.17;;;14.70;99.90;;;;;;4199568;28;20262;-73
2022/08/20 01:51:10;;;;;;;1503.73;601.37;;;14.60;99.90;;;;;;4199471;28;20236;-73
2022/08/20 01:53:20;;;;;;;840.67;576.27;;;14.60;99.90;;;;;;4198686;28;20171;-73
2022/08/20 01:55:20;;;;;;;1710.97;702.33;;;14.60;99.90;;;;;;4181480;28;20176;-72
2022/08/20 01:57:25;;;;;;;1456.83;761.73;;;14.50;99.90;;;;;;4181219;28;20227;-75
2022/08/20 01:59:26;;;;;;;853.10;662.00;;;14.50;99.90;;;;;;4199442;28;20175;-73
2022/08/20 02:01:32;;;;;;;689.13;574.30;;;14.50;99.90;;;;;;4181309;28;20226;-73
2022/08/20 02:03:33;;;;;;;550.77;503.53;;;14.60;99.90;;;;;;4198812;28;20207;-73
2022/08/20 02:05:34;;;;;;;763.63;612.20;;;14.60;99.90;;;;;;4199452;28;20176;-73
2022/08/20 02:07:36;;;;;;;1120.03;682.70;;;14.60;99.90;;;;;;4181142;28;20724;-72
2022/08/20 02:09:38;;;;;;;1999.90;863.23;;;14.70;99.90;;;;;;4199257;28;20184;-73
2022/08/20 02:11:39;;;;;;;1999.90;802.87;;;14.80;99.90;;;;;;4181319;28;20195;-72
2022/08/20 02:13:40;;;;;;;1068.63;723.53;;;14.80;99.90;;;;;;4198304;28;20551;-73
2022/08/20 02:15:40;;;;;;;596.60;532.10;;;14.90;99.90;;;;;;4199134;28;20250;-73
2022/08/20 02:17:41;;;;;;;783.77;702.83;;;14.90;99.90;;;;;;4199307;28;20561;-73
2022/08/20 02:19:51;;;;;;;1164.63;601.53;;;14.90;99.90;;;;;;4198746;28;20184;-74
2022/08/20 02:21:55;;;;;;;1243.63;737.40;;;14.90;99.90;;;;;;4198981;28;20240;-72
2022/08/20 02:23:57;;;;;;;1373.40;620.57;;;14.90;99.90;;;;;;4198206;28;20282;-73
2022/08/20 02:25:58;;;;;;;1395.80;641.03;;;14.90;99.90;;;;;;4180809;28;20358;-73
2022/08/20 02:28:05;;;;;;;1723.33;630.53;;;14.80;99.90;;;;;;4198510;28;20207;-73
2022/08/20 02:30:15;;;;;;;1163.27;638.13;;;14.90;99.90;;;;;;4198361;28;20176;-73
2022/08/20 02:32:16;;;;;;;914.63;628.63;;;14.90;99.90;;;;;;4180564;28;20775;-73
2022/08/20 02:34:16;;;;;;;1435.27;665.23;;;15.00;99.90;;;;;;4197977;28;20608;-73
2022/08/20 02:36:18;;;;;;;842.13;622.73;;;14.90;99.90;;;;;;4198352;28;20173;-72
2022/08/20 02:38:19;;;;;;;960.10;675.03;;;14.90;99.90;;;;;;4198272;28;20215;-73
2022/08/20 02:40:25;;;;;;;1644.60;584.83;;;14.90;99.90;;;;;;4198373;28;20180;-74
2022/08/20 02:42:25;;;;;;;1950.90;622.67;;;14.90;99.90;;;;;;4198217;28;20636;-73
2022/08/20 02:44:26;;;;;;;1473.33;638.07;;;15.00;99.90;;;;;;4193953;28;20215;-73
2022/08/20 02:46:27;;;;;;;1999.90;745.47;;;15.00;99.90;;;;;;4194699;28;20196;-73
2022/08/20 02:48:28;;;;;;;1186.30;800.83;;;15.10;99.90;;;;;;4180156;28;20836;-73
2022/08/20 02:50:29;;;;;;;1008.10;689.47;;;15.10;99.90;;;;;;4198200;28;20229;-73
2022/08/20 02:52:30;;;;;;;1999.90;709.57;;;15.10;99.90;;;;;;4180111;28;20188;-73
2022/08/20 02:54:31;;;;;;;1096.33;749.77;;;15.20;99.90;;;;;;4179485;28;20738;-73
2022/08/20 02:56:31;;;;;;;1215.27;729.17;;;15.20;99.90;;;;;;4197673;28;20225;-73
2022/08/20 02:58:32;;;;;;;1971.57;752.73;;;15.10;99.90;;;;;;4179384;28;20789;-73
2022/08/20 03:00:33;;;;;;;1546.40;790.37;;;15.20;99.90;;;;;;4197695;28;20182;-73
2022/08/20 03:02:33;;;;;;;1466.13;692.40;;;15.30;99.90;;;;;;4196573;28;20829;-73
2022/08/20 03:04:34;;;;;;;1993.20;735.50;;;15.30;99.90;;;;;;4197155;28;20218;-72
2022/08/20 03:06:35;;;;;;;1999.90;783.77;;;15.30;99.90;;;;;;4180032;28;20188;-74
2022/08/20 03:08:36;;;;;;;1430.47;691.93;;;15.30;99.90;;;;;;4197658;28;20198;-73
2022/08/20 03:10:38;;;;;;;1639.83;660.00;;;15.30;99.90;;;;;;4197863;28;20309;-73
2022/08/20 03:12:40;;;;;;;1781.37;858.90;;;15.40;99.90;;;;;;4197867;28;20678;-75
2022/08/20 03:14:41;;;;;;;1921.73;774.17;;;15.40;99.90;;;;;;4198430;28;20215;-73
2022/08/20 03:16:42;;;;;;;1232.27;767.63;;;15.30;99.90;;;;;;4180757;28;20180;-73
2022/08/20 03:18:44;;;;;;;1999.90;811.20;;;15.30;99.90;;;;;;4198024;28;20183;-75
2022/08/20 03:20:46;;;;;;;1999.90;837.10;;;15.30;99.90;;;;;;4180067;28;20195;-73
2022/08/20 03:22:48;;;;;;;1959.27;826.67;;;15.30;99.90;;;;;;4197210;28;20523;-73
2022/08/20 03:24:48;;;;;;;1951.87;874.80;;;15.40;99.90;;;;;;4179860;28;20997;-73
2022/08/20 03:26:49;;;;;;;1499.33;621.83;;;15.40;99.90;;;;;;4197645;28;20179;-73
2022/08/20 03:28:49;;;;;;;1999.90;940.20;;;15.40;99.90;;;;;;4197650;28;20237;-72
2022/08/20 03:30:52;;;;;;;1999.90;852.23;;;15.40;99.90;;;;;;4197698;28;20187;-72
2022/08/20 03:32:53;;;;;;;1999.90;727.03;;;15.40;99.90;;;;;;4179102;28;20180;-73
2022/08/20 03:34:54;;;;;;;1801.73;777.30;;;15.40;99.90;;;;;;4197684;28;20194;-73
2022/08/20 03:36:55;;;;;;;1999.90;845.67;;;15.50;99.90;;;;;;4179793;28;20279;-73
2022/08/20 03:39:02;;;;;;;1987.63;902.87;;;15.50;99.90;;;;;;4197491;28;20262;-72
2022/08/20 03:41:03;;;;;;;1932.37;924.60;;;15.60;99.90;;;;;;4197346;28;20194;-73
2022/08/20 03:43:07;;;;;;;1999.90;859.53;;;15.60;99.90;;;;;;4178841;28;20195;-73
2022/08/20 03:45:11;;;;;;;1999.90;733.47;;;15.60;99.90;;;;;;4196621;28;20199;-73
2022/08/20 03:47:11;;;;;;;1999.90;954.27;;;15.80;99.90;;;;;;4197261;28;20226;-73
2022/08/20 03:49:12;;;;;;;1999.90;937.00;;;15.80;99.90;;;;;;4179098;28;20180;-73
2022/08/20 03:51:12;;;;;;;1999.90;896.80;;;15.80;99.90;;;;;;4179064;28;20702;-74
2022/08/20 03:53:14;;;;;;;1546.53;521.83;;;15.80;99.90;;;;;;4178454;28;20645;-73
2022/08/20 03:55:15;;;;;;;1999.90;796.33;;;15.80;99.90;;;;;;4197114;28;20191;-73
2022/08/20 03:57:16;;;;;;;1999.90;957.43;;;15.90;99.90;;;;;;4197287;28;20184;-73
2022/08/20 03:59:16;;;;;;;1999.90;938.10;;;15.90;99.90;;;;;;4197168;28;20592;-73
2022/08/20 04:01:17;;;;;;;1999.90;897.33;;;15.90;99.90;;;;;;4197084;28;20182;-73
2022/08/20 04:03:18;;;;;;;1999.90;833.17;;;16.00;99.90;;;;;;4196555;28;20227;-74
2022/08/20 04:05:19;;;;;;;1999.90;943.47;;;15.90;99.90;;;;;;4179415;28;20184;-73
2022/08/20 04:07:26;;;;;;;1999.90;934.07;;;15.90;99.90;;;;;;4197175;28;20211;-73
2022/08/20 04:09:28;;;;;;;1999.90;890.83;;;15.90;99.90;;;;;;4197233;28;20156;-73
2022/08/20 04:11:29;;;;;;;1999.90;901.83;;;15.90;99.90;;;;;;4197029;28;20179;-73
2022/08/20 04:13:30;;;;;;;1999.90;840.03;;;15.90;99.90;;;;;;4196281;28;20222;-73
2022/08/20 04:15:31;;;;;;;1999.90;981.67;;;15.90;99.90;;;;;;4196952;28;20229;-73
2022/08/20 04:17:32;;;;;;;1999.90;778.83;;;15.90;99.90;;;;;;4179479;28;20197;-72
2022/08/20 04:19:33;;;;;;;1999.90;898.90;;;16.00;99.90;;;;;;4197058;28;20273;-74
2022/08/20 04:21:35;;;;;;;1999.90;958.97;;;16.00;99.90;;;;;;4196961;28;20178;-74
2022/08/20 04:23:35;;;;;;;1999.90;947.13;;;16.10;99.90;;;;;;4196104;28;20213;-75
2022/08/20 04:25:39;;;;;;;1999.90;761.47;;;16.10;99.90;;;;;;4197001;28;20211;-75
2022/08/20 04:27:40;;;;;;;1999.90;999.90;;;16.10;99.90;;;;;;4196813;28;20277;-75
2022/08/20 04:29:44;;;;;;;1999.90;999.90;;;16.20;99.90;;;;;;4196617;28;20198;-74
2022/08/20 04:31:45;;;;;;;1999.90;995.20;;;16.20;99.90;;;;;;4196838;28;20310;-74
2022/08/20 04:33:45;;;;;;;1999.90;892.77;;;16.10;99.90;;;;;;4196026;28;20191;-74
2022/08/20 04:35:46;;;;;;;1999.90;813.10;;;16.10;99.90;;;;;;4196486;28;20175;-74
2022/08/20 04:37:47;;;;;;;1945.17;829.60;;;16.20;99.90;;;;;;4196724;28;20209;-74
2022/08/20 04:40:52;;;;;;;1999.90;967.93;;;16.30;99.90;;;;;;4196612;28;20179;-74
2022/08/20 04:42:09;;;;;;;1999.90;789.47;;;16.20;99.90;;;;;;4196429;28;20191;-74
2022/08/20 04:44:10;;;;;;;1999.90;958.33;;;16.30;99.90;;;;;;4195596;28;20207;-74
2022/08/20 04:46:12;;;;;;;1999.90;818.63;;;16.30;99.90;;;;;;4196676;28;20176;-74
2022/08/20 04:48:14;;;;;;;1999.90;852.93;;;16.40;99.90;;;;;;4196457;28;20291;-74
2022/08/20 04:50:16;;;;;;;1999.90;912.87;;;16.50;99.90;;;;;;4195932;28;20179;-74
2022/08/20 04:52:16;;;;;;;1999.90;926.60;;;16.50;99.90;;;;;;4196270;28;20190;-74
2022/08/20 04:54:17;;;;;;;1999.90;987.47;;;16.50;99.90;;;;;;4195812;28;20594;-73
2022/08/20 04:56:22;;;;;;;1999.90;994.17;;;16.60;99.90;;;;;;4196454;28;20556;-74
2022/08/20 04:58:32;;;;;;;1999.90;854.57;;;16.60;99.90;;;;;;4185702;28;20204;-74
2022/08/20 05:00:33;;;;;;;1981.50;718.50;;;16.50;99.90;;;;;;4189118;28;20191;-73
2022/08/20 05:02:34;;;;;;;1999.90;805.03;;;16.50;99.90;;;;;;4196435;28;20190;-74
2022/08/20 05:04:36;;;;;;;1999.90;814.10;;;16.60;99.90;;;;;;4195646;28;20215;-74
2022/08/20 05:06:37;;;;;;;1999.90;889.13;;;16.60;99.90;;;;;;4196561;28;20194;-76
2022/08/20 05:08:38;;;;;;;1999.90;913.80;;;16.60;99.90;;;;;;4196221;28;20834;-73
2022/08/20 05:10:39;;;;;;;1999.90;665.37;;;16.60;99.90;;;;;;4196198;28;20213;-74
2022/08/20 05:12:41;;;;;;;1999.90;765.07;;;16.70;99.90;;;;;;4196434;28;20215;-74
2022/08/20 05:14:41;;;;;;;1999.90;857.80;;;16.70;99.90;;;;;;4196427;28;20202;-74
2022/08/20 05:16:42;;;;;;;1999.90;830.00;;;16.70;99.90;;;;;;4197254;28;20176;-73
2022/08/20 05:18:44;;;;;;;1999.90;779.20;;;16.70;99.90;;;;;;4196477;28;20202;-74
2022/08/20 05:20:45;;;;;;;1999.90;671.20;;;16.70;99.90;;;;;;4196368;28;20324;-73
2022/08/20 05:22:46;;;;;;;1999.90;916.67;;;16.80;99.90;;;;;;4194775;28;20179;-73
2022/08/20 05:24:46;;;;;;;1999.90;915.03;;;16.80;99.90;;;;;;4196104;28;20599;-73
2022/08/20 05:26:47;;;;;;;1999.90;801.33;;;16.80;99.90;;;;;;4177550;28;20236;-73
2022/08/20 05:28:48;;;;;;;1959.63;810.87;;;16.80;99.90;;;;;;4177788;28;20651;-73
2022/08/20 05:30:49;;;;;;;1999.90;850.50;;;16.80;99.90;;;;;;4195564;28;20191;-72
2022/08/20 05:32:50;;;;;;;1999.90;724.07;;;16.90;99.90;;;;;;4195045;28;20179;-73
2022/08/20 05:34:50;;;;;;;1999.90;817.47;;;17.00;99.90;;;;;;4195607;28;20231;-73
2022/08/20 05:36:51;;;;;;;1999.90;779.47;;;17.00;99.90;;;;;;4195496;28;20172;-73
2022/08/20 05:38:53;;;;;;;1999.90;895.50;;;17.00;99.90;;;;;;4195390;28;20202;-73
2022/08/20 05:40:54;;;;;;;1999.90;688.83;;;17.00;99.90;;;;;;4195537;28;20188;-73
2022/08/20 05:42:54;;;;;;;1999.90;711.57;;;16.90;99.90;;;;;;4194708;28;20623;-72
2022/08/20 05:44:55;;;;;;;1999.90;905.80;;;17.00;99.90;;;;;;4195600;28;20566;-72
2022/08/20 05:46:55;;;;;;;1999.90;793.00;;;17.10;99.90;;;;;;4177489;28;20172;-72
2022/08/20 05:48:56;;;;;;;1999.90;703.57;;;17.30;99.90;;;;;;4195442;28;20590;-73
2022/08/20 05:50:57;;;;;;;1999.90;753.20;;;17.30;99.90;;;;;;4195482;28;20180;-73
2022/08/20 05:52:58;;;;;;;1999.90;773.70;;;17.40;99.90;;;;;;4194545;28;20175;-73
2022/08/20 05:54:59;;;;;;;1999.90;737.90;;;17.40;99.90;;;;;;4195387;28;20180;-73
2022/08/20 05:56:59;;;;;;;1999.90;960.47;;;17.50;99.90;;;;;;4195402;28;20278;-73
2022/08/20 05:59:03;;;;;;;1999.90;799.43;;;17.60;99.90;;;;;;4195268;28;20192;-73
2022/08/20 06:01:04;;;;;;;1999.90;919.77;;;17.80;99.70;;;;;;4177523;28;20269;-73
2022/08/20 06:05:24;;;;;;;1999.90;861.23;;;17.80;99.40;;;;;;4195404;28;20229;-73
2022/08/20 06:07:25;;;;;;;1999.90;935.73;;;17.90;99.50;;;;;;4177363;28;20766;-72
2022/08/20 06:09:26;;;;;;;1999.90;999.90;;;17.90;99.50;;;;;;4195376;28;20187;-73
2022/08/20 06:11:26;;;;;;;1999.90;999.90;;;17.80;99.90;;;;;;4177363;28;20185;-72
2022/08/20 06:13:27;;;;;;;1999.90;981.87;;;17.70;99.90;;;;;;4194555;28;20309;-73
2022/08/20 06:15:30;;;;;;;1999.90;999.90;;;17.70;99.90;;;;;;4195162;28;20183;-73
2022/08/20 06:17:32;;;;;;;1999.90;999.90;;;17.90;99.90;;;;;;4195214;28;20196;-72
2022/08/20 06:19:34;;;;;;;1999.90;999.90;;;18.00;99.90;;;;;;4195172;28;20188;-73
2022/08/20 06:21:35;;;;;;;1999.90;999.90;;;18.00;99.40;;;;;;4195053;28;20195;-72
2022/08/20 06:23:35;;;;;;;1999.90;999.90;;;18.10;99.40;;;;;;4194365;28;20613;-73
2022/08/20 06:25:37;;;;;;;1999.90;999.90;;;18.00;98.70;;;;;;4195166;28;20206;-73
2022/08/20 06:27:39;;;;;;;1999.90;897.73;;;18.10;99.10;;;;;;4195044;28;20214;-73
2022/08/20 06:29:40;;;;;;;1999.90;999.90;;;18.30;99.30;;;;;;4195216;28;20655;-73
2022/08/20 06:31:41;;;;;;;1999.90;999.90;;;18.30;99.60;;;;;;4194978;28;20267;-72
2022/08/20 06:33:42;;;;;;;1999.90;999.90;;;18.30;99.20;;;;;;4194570;28;20330;-72
2022/08/20 06:35:43;;;;;;;1999.90;999.90;;;18.40;98.20;;;;;;4198319;28;20225;-74
2022/08/20 06:37:44;;;;;;;1999.90;999.90;;;18.60;98.00;;;;;;4198135;28;20192;-73
2022/08/20 06:39:44;;;;;;;1999.90;996.50;;;18.70;97.10;;;;;;4198346;28;20556;-72
2022/08/20 06:41:45;;;;;;;1999.90;999.90;;;19.00;97.80;;;;;;4198186;28;20207;-73
2022/08/20 06:43:45;;;;;;;1999.90;999.90;;;19.00;96.90;;;;;;4179744;28;20699;-73
2022/08/20 06:45:46;;;;;;;1999.90;999.90;;;19.10;96.70;;;;;;4197572;28;20685;-72
2022/08/20 06:47:47;;;;;;;1999.90;999.90;;;19.10;96.30;;;;;;4198004;28;20585;-73
2022/08/20 06:49:47;;;;;;;1999.90;999.90;;;19.40;94.30;;;;;;4197975;28;20270;-71
2022/08/20 06:51:48;;;;;;;1999.90;999.90;;;19.60;94.00;;;;;;4197838;28;20218;-72
2022/08/20 06:53:48;;;;;;;1999.90;881.67;;;19.50;93.30;;;;;;4196929;28;20585;-72
2022/08/20 06:55:53;;;;;;;1999.90;890.93;;;19.70;92.80;;;;;;4180138;28;20314;-72
2022/08/20 06:58:03;;;;;;;1999.90;999.90;;;19.90;92.20;;;;;;4179811;28;20180;-72
2022/08/20 07:00:16;;;;;;;1999.90;999.90;;;19.80;92.30;;;;;;4197746;28;20233;-71
2022/08/20 07:02:17;;;;;;;1999.90;814.83;;;19.90;92.70;;;;;;4197926;28;20851;-72
2022/08/20 07:04:17;;;;;;;1999.90;999.90;;;19.80;92.00;;;;;;4179099;28;20215;-72
2022/08/20 07:06:18;;;;;;;1999.90;947.27;;;19.60;92.00;;;;;;4197574;28;20184;-72
2022/08/20 07:08:20;;;;;;;1999.90;999.90;;;19.70;92.30;;;;;;4179644;28;20731;-72
2022/08/20 07:10:23;;;;;;;1999.90;999.90;;;19.80;92.30;;;;;;4197691;28;20176;-72
2022/08/20 07:12:24;;;;;;;1999.90;999.90;;;20.10;91.10;;;;;;4197424;28;20171;-72
2022/08/20 07:14:25;;;;;;;1999.90;965.00;;;20.00;92.20;;;;;;4197022;28;20282;-72
2022/08/20 07:16:26;;;;;;;1999.90;999.90;;;20.10;90.30;;;;;;4197733;28;20175;-71
2022/08/20 07:18:27;;;;;;;1999.90;999.90;;;20.00;90.60;;;;;;4197620;28;20249;-71
2022/08/20 07:20:30;;;;;;;1999.90;999.90;;;20.10;90.40;;;;;;4197330;28;20194;-72
2022/08/20 07:22:34;;;;;;;1999.90;999.90;;;20.30;88.90;;;;;;4179601;28;20660;-72
2022/08/20 07:24:34;;;;;;;1999.90;999.90;;;20.20;90.40;;;;;;4196902;28;20241;-72
2022/08/20 07:26:35;;;;;;;1999.90;796.17;;;20.10;91.00;;;;;;4197271;28;20183;-72
2022/08/20 07:28:36;;;;;;;1999.90;999.90;;;20.50;89.50;;;;;;4197240;28;20208;-71
2022/08/20 07:32:56;;;;;;;1999.90;999.90;;;20.30;88.90;;;;;;4196593;28;20174;-72
2022/08/20 07:34:56;;;;;;;1999.90;999.90;;;20.00;88.80;;;;;;4197425;28;20207;-71
2022/08/20 07:37:00;;;;;;;1999.90;914.00;;;19.90;90.00;;;;;;4197039;28;20583;-71
2022/08/20 07:39:00;;;;;;;1999.90;962.97;;;19.90;90.70;;;;;;4197099;28;20184;-71
2022/08/20 07:41:11;;;;;;;1999.90;999.90;;;19.90;91.30;;;;;;4179139;28;20187;-71
2022/08/20 07:43:14;;;;;;;1999.90;999.90;;;20.30;89.00;;;;;;4178817;28;20187;-71
2022/08/20 07:45:17;;;;;;;1999.90;958.43;;;20.20;88.40;;;;;;4196433;28;20280;-71
2022/08/20 07:47:18;;;;;;;1999.90;848.03;;;20.10;88.10;;;;;;4162576;28;20303;-71
2022/08/20 07:49:19;;;;;;;1999.90;986.50;;;20.20;87.00;;;;;;4197049;28;20647;-71
2022/08/20 07:51:21;;;;;;;1999.90;853.03;;;20.30;87.40;;;;;;4196954;28;20198;-71
2022/08/20 07:53:22;;;;;;;1999.90;867.33;;;20.10;89.60;;;;;;4196369;28;20191;-71
2022/08/20 07:55:23;;;;;;;1999.90;856.93;;;19.80;90.40;;;;;;4197056;28;20178;-71
2022/08/20 07:57:24;;;;;;;1999.90;843.13;;;19.80;90.40;;;;;;4196783;28;20187;-70
2022/08/20 07:59:24;;;;;;;1999.90;862.80;;;19.60;91.20;;;;;;4196892;28;20594;-71
2022/08/20 08:01:29;;;;;;;1999.90;815.97;;;19.50;91.90;;;;;;4196808;28;20219;-71
2022/08/20 08:03:30;;;;;;;1999.90;800.53;;;19.50;92.30;;;;;;4196036;28;20897;-71
2022/08/20 08:05:33;;;;;;;1999.90;667.53;;;19.20;93.00;;;;;;4178841;28;20198;-70
2022/08/20 08:07:34;;;;;;;1999.90;866.20;;;19.00;92.90;;;;;;4196345;28;20219;-71
2022/08/20 08:09:36;;;;;;;1999.90;831.37;;;19.00;94.10;;;;;;4196632;28;20175;-71
2022/08/20 08:11:38;;;;;;;1999.90;795.77;;;19.00;94.20;;;;;;4196574;28;20175;-70
2022/08/20 08:13:40;;;;;;;1999.90;816.97;;;18.80;94.60;;;;;;4195818;28;20282;-71
2022/08/20 08:15:47;;;;;;;1999.90;900.00;;;18.60;94.90;;;;;;4196600;28;20721;-70
2022/08/20 08:17:49;;;;;;;1999.90;872.80;;;18.70;94.90;;;;;;4196523;28;20167;-71
2022/08/20 08:19:50;;;;;;;1999.90;817.00;;;18.70;95.00;;;;;;4196490;28;20608;-71
2022/08/20 08:21:51;;;;;;;1999.90;829.27;;;18.80;95.10;;;;;;4196457;28;20187;-71
2022/08/20 08:23:52;;;;;;;1999.90;842.33;;;18.90;95.40;;;;;;4195553;28;20195;-70
2022/08/20 08:25:52;;;;;;;1999.90;707.37;;;19.00;94.50;;;;;;4196297;28;20180;-71
2022/08/20 08:27:53;;;;;;;1999.90;983.13;;;19.10;93.90;;;;;;4196236;28;20268;-71
2022/08/20 08:29:53;;;;;;;1999.90;861.40;;;19.00;94.70;;;;;;4196292;28;20200;-70
2022/08/20 08:31:55;;;;;;;1999.90;760.37;;;19.10;93.50;;;;;;4196257;28;20175;-71
2022/08/20 08:33:56;;;;;;;1999.90;846.77;;;19.20;93.30;;;;;;4195481;28;20619;-70
2022/08/20 08:36:01;;;;;;;1999.90;896.53;;;19.30;92.80;;;;;;4196143;28;20207;-70
2022/08/20 08:38:02;;;;;;;1999.90;815.43;;;19.50;92.70;;;;;;4196205;28;20186;-71
2022/08/20 08:40:04;;;;;;;1999.90;813.60;;;19.50;92.90;;;;;;4178238;28;20185;-71
2022/08/20 08:42:21;;;;;;;1999.90;893.17;;;19.60;94.20;;;;;;4196154;28;20179;-71
2022/08/20 08:44:25;;;;;;;1999.90;922.07;;;19.40;93.80;;;;;;4195318;28;20707;-70
2022/08/20 08:46:28;;;;;;;1999.90;993.07;;;19.20;94.30;;;;;;4177540;28;20237;-71
2022/08/20 08:48:44;;;;;;;1999.90;994.63;;;19.10;94.00;;;;;;4177847;28;20200;-71
2022/08/20 08:50:50;;;;;;;1999.90;999.90;;;19.00;94.50;;;;;;4195961;28;20203;-70
2022/08/20 08:52:58;;;;;;;1999.90;839.03;;;19.00;95.30;;;;;;4195359;28;20541;-70
2022/08/20 08:55:02;;;;;;;1999.90;910.97;;;19.30;96.60;;;;;;4178439;28;20659;-70
2022/08/20 08:57:06;;;;;;;1999.90;915.20;;;19.40;94.90;;;;;;4195215;28;20308;-70
2022/08/20 08:59:07;;;;;;;1999.90;808.37;;;19.30;94.50;;;;;;4178166;28;20186;-70
2022/08/20 09:01:12;;;;;;;1999.90;999.90;;;19.40;94.70;;;;;;4195479;28;20190;-70
2022/08/20 09:03:23;;;;;;;1999.90;923.70;;;19.60;95.40;;;;;;4177329;28;20188;-70
2022/08/20 09:05:34;;;;;;;1999.90;938.23;;;19.90;94.20;;;;;;4196035;28;20182;-70
2022/08/20 09:07:36;;;;;;;1999.90;989.70;;;20.10;93.90;;;;;;4195661;28;20567;-70
2022/08/20 09:09:41;;;;;;;1999.90;999.90;;;20.30;91.90;;;;;;4195764;28;20176;-70
2022/08/20 09:11:48;;;;;;;1999.90;999.90;;;20.50;92.00;;;;;;4177906;28;20206;-70
2022/08/20 09:13:52;;;;;;;1999.90;999.90;;;20.10;93.50;;;;;;4195001;28;20199;-72
2022/08/20 09:15:53;;;;;;;1999.90;974.50;;;20.20;93.90;;;;;;4161720;28;20680;-69
2022/08/20 09:17:54;;;;;;;1999.90;951.27;;;20.20;92.30;;;;;;4195638;28;20179;-70
2022/08/20 09:19:54;;;;;;;1999.90;829.73;;;20.20;93.80;;;;;;4195661;28;20528;-69
2022/08/20 09:21:55;;;;;;;1999.90;853.80;;;20.10;91.80;;;;;;4195641;28;20183;-70
2022/08/20 09:23:56;;;;;;;1999.90;890.50;;;20.10;92.70;;;;;;4176918;28;20211;-70
2022/08/20 09:25:57;;;;;;;1999.90;899.57;;;20.30;92.00;;;;;;4193021;28;20245;-69
2022/08/20 09:27:57;;;;;;;1999.90;888.83;;;20.40;89.50;;;;;;4179334;28;20211;-69
2022/08/20 09:29:58;;;;;;;1999.90;951.73;;;20.60;90.20;;;;;;4160855;28;20185;-70
2022/08/20 09:32:20;;;;;;;1999.90;861.07;;;20.70;90.90;;;;;;4177695;28;20199;-68
2022/08/20 09:34:21;;;;;;;1999.90;877.27;;;20.90;88.60;;;;;;4175944;28;20204;-69
2022/08/20 09:36:22;;;;;;;1999.90;999.90;;;21.20;88.10;;;;;;4194830;28;20186;-70
2022/08/20 09:38:22;;;;;;;1999.90;895.17;;;21.20;84.90;;;;;;4195604;28;20184;-71
2022/08/20 09:40:23;;;;;;;1999.90;857.17;;;21.00;85.80;;;;;;4195873;28;20641;-70
2022/08/20 09:42:28;;;;;;;1999.90;987.20;;;21.30;86.70;;;;;;4178381;28;20230;-71
2022/08/20 09:44:29;;;;;;;1999.90;904.03;;;21.80;83.90;;;;;;4180755;28;20290;-70
2022/08/20 09:46:30;;;;;;;1999.90;991.03;;;21.80;81.20;;;;;;4196654;28;20622;-72
2022/08/20 09:48:30;;;;;;;1999.90;959.43;;;21.80;80.90;;;;;;4196022;28;20218;-70
2022/08/20 09:50:34;;;;;;;1999.90;910.40;;;21.60;80.00;;;;;;4178834;28;20206;-69
2022/08/20 09:52:39;;;;;;;1999.90;876.73;;;21.50;78.30;;;;;;4178199;28;20176;-69
2022/08/20 09:54:40;;;;;;;1999.90;993.60;;;21.70;76.90;;;;;;4177722;28;20200;-69
2022/08/20 09:56:41;;;;;;;1999.90;908.40;;;21.70;78.80;;;;;;4178108;28;20183;-70
2022/08/20 09:58:53;;;;;;;1999.90;867.60;;;21.70;77.60;;;;;;4178146;28;20187;-70
2022/08/20 10:00:54;;;;;;;1999.90;938.47;;;21.70;75.40;;;;;;4161631;28;20192;-70
2022/08/20 10:02:55;;;;;;;1999.90;999.90;;;21.50;75.30;;;;;;4195451;28;20203;-71
2022/08/20 10:04:55;;;;;;;1999.90;870.57;;;21.60;74.70;;;;;;4178355;28;20184;-70